sensor_id;sensor_type;location;lat;lon;timestamp;pressure;altitude;pressure_sealevel;temperature
40047;BMP280;31510;48.122;11.576;2022-12-28T00:00:16;96508.38;;;3.88
40047;BMP280;31510;48.122;11.576;2022-12-28T00:02:41;96508.75;;;3.94
40047;BMP280;31510;48.122;11.576;2022-12-28T00:05:07;96504.97;;;3.88
40047;BMP280;31510;48.122;11.576;2022-12-28T00:07:32;96502.31;;;3.84
40047;BMP280;31510;48.122;11.576;2022-12-28T00:09:57;96506.09;;;3.80
40047;BMP280;31510;48.122;11.576;2022-12-28T00:12:23;96505.72;;;3.78
40047;BMP280;31510;48.122;11.576;2022-12-28T00:14:48;96498.91;;;3.73
40047;BMP280;31510;48.122;11.576;2022-12-28T00:17:13;96503.44;;;3.73
40047;BMP280;31510;48.122;11.576;2022-12-28T00:19:39;96514.38;;;3.71
40047;BMP280;31510;48.122;11.576;2022-12-28T00:22:04;96504.19;;;3.73
40047;BMP280;31510;48.122;11.576;2022-12-28T00:24:29;96501.94;;;3.72
40047;BMP280;31510;48.122;11.576;2022-12-28T00:26:54;96501.56;;;3.73
40047;BMP280;31510;48.122;11.576;2022-12-28T00:29:21;96510.63;;;3.72
40047;BMP280;31510;48.122;11.576;2022-12-28T00:31:46;96501.19;;;3.71
40047;BMP280;31510;48.122;11.576;2022-12-28T00:34:11;96503.06;;;3.74
40047;BMP280;31510;48.122;11.576;2022-12-28T00:36:36;96504.56;;;3.72
40047;BMP280;31510;48.122;11.576;2022-12-28T00:39:02;96504.56;;;3.72
40047;BMP280;31510;48.122;11.576;2022-12-28T00:41:27;96502.31;;;3.74
40047;BMP280;31510;48.122;11.576;2022-12-28T00:43:53;96497.44;;;3.76
40047;BMP280;31510;48.122;11.576;2022-12-28T00:46:18;96493.25;;;3.71
40047;BMP280;31510;48.122;11.576;2022-12-28T00:48:43;96489.88;;;3.71
40047;BMP280;31510;48.122;11.576;2022-12-28T00:51:14;96486.09;;;3.72
40047;BMP280;31510;48.122;11.576;2022-12-28T00:53:39;96486.09;;;3.72
40047;BMP280;31510;48.122;11.576;2022-12-28T00:56:12;96488.34;;;3.70
40047;BMP280;31510;48.122;11.576;2022-12-28T00:58:38;96491.38;;;3.68
40047;BMP280;31510;48.122;11.576;2022-12-28T01:01:05;96486.47;;;3.67
40047;BMP280;31510;48.122;11.576;2022-12-28T01:03:30;96492.88;;;3.69
40047;BMP280;31510;48.122;11.576;2022-12-28T01:05:56;96483.84;;;3.74
40047;BMP280;31510;48.122;11.576;2022-12-28T01:08:21;96480.06;;;3.71
40047;BMP280;31510;48.122;11.576;2022-12-28T01:10:47;96481.19;;;3.67
40047;BMP280;31510;48.122;11.576;2022-12-28T01:13:12;96472.88;;;3.58
40047;BMP280;31510;48.122;11.576;2022-12-28T01:15:37;96472.88;;;3.58
40047;BMP280;31510;48.122;11.576;2022-12-28T01:18:03;96470.25;;;3.55
40047;BMP280;31510;48.122;11.576;2022-12-28T01:20:28;96472.88;;;3.58
40047;BMP280;31510;48.122;11.576;2022-12-28T01:22:54;96475.16;;;3.59
40047;BMP280;31510;48.122;11.576;2022-12-28T01:25:19;96480.81;;;3.61
40047;BMP280;31510;48.122;11.576;2022-12-28T01:27:44;96486.47;;;3.57
40047;BMP280;31510;48.122;11.576;2022-12-28T01:30:12;96492.44;;;3.43
40047;BMP280;31510;48.122;11.576;2022-12-28T01:32:37;96495.06;;;3.40
40047;BMP280;31510;48.122;11.576;2022-12-28T01:35:03;96493.97;;;3.41
40047;BMP280;31510;48.122;11.576;2022-12-28T01:37:28;96495.06;;;3.40
40047;BMP280;31510;48.122;11.576;2022-12-28T01:39:53;96489.81;;;3.40
40047;BMP280;31510;48.122;11.576;2022-12-28T01:42:19;96487.16;;;3.36
40047;BMP280;31510;48.122;11.576;2022-12-28T01:44:46;96485.66;;;3.32
40047;BMP280;31510;48.122;11.576;2022-12-28T01:47:15;96489.41;;;3.31
40047;BMP280;31510;48.122;11.576;2022-12-28T01:49:45;96483.38;;;3.30
40047;BMP280;31510;48.122;11.576;2022-12-28T01:54:51;96463.44;;;3.36
40047;BMP280;31510;48.122;11.576;2022-12-28T01:57:18;96460.75;;;3.26
40047;BMP280;31510;48.122;11.576;2022-12-28T01:59:50;96450.97;;;3.16
40047;BMP280;31510;48.122;11.576;2022-12-28T02:02:16;96458.09;;;3.12
40047;BMP280;31510;48.122;11.576;2022-12-28T02:04:44;96442.25;;;3.05
40047;BMP280;31510;48.122;11.576;2022-12-28T02:07:11;96444.53;;;3.10
40047;BMP280;31510;48.122;11.576;2022-12-28T02:09:40;96438.53;;;3.13
40047;BMP280;31510;48.122;11.576;2022-12-28T02:12:09;96435.88;;;3.10
40047;BMP280;31510;48.122;11.576;2022-12-28T02:14:37;96422.72;;;3.17
40047;BMP280;31510;48.122;11.576;2022-12-28T02:17:03;96424.19;;;3.14
40047;BMP280;31510;48.122;11.576;2022-12-28T02:19:36;96426.47;;;3.12
40047;BMP280;31510;48.122;11.576;2022-12-28T02:27:31;96410.28;;;3.10
40047;BMP280;31510;48.122;11.576;2022-12-28T02:30:11;96405.00;;;3.07
40047;BMP280;31510;48.122;11.576;2022-12-28T02:36:04;96400.47;;;2.97
40047;BMP280;31510;48.122;11.576;2022-12-28T02:38:53;96396.31;;;2.99
40047;BMP280;31510;48.122;11.576;2022-12-28T02:41:21;96400.47;;;3.11
40047;BMP280;31510;48.122;11.576;2022-12-28T02:43:48;96403.91;;;3.18
40047;BMP280;31510;48.122;11.576;2022-12-28T02:46:27;96404.28;;;3.27
40047;BMP280;31510;48.122;11.576;2022-12-28T02:49:25;96396.78;;;3.36
40047;BMP280;31510;48.122;11.576;2022-12-28T02:55:13;96404.69;;;3.43
40047;BMP280;31510;48.122;11.576;2022-12-28T03:09:07;96374.91;;;3.18
40047;BMP280;31510;48.122;11.576;2022-12-28T03:11:42;96363.97;;;3.06
40047;BMP280;31510;48.122;11.576;2022-12-28T03:14:19;96361.69;;;3.04
40047;BMP280;31510;48.122;11.576;2022-12-28T03:16:50;96356.06;;;3.06
40047;BMP280;31510;48.122;11.576;2022-12-28T03:19:41;96345.13;;;3.11
40047;BMP280;31510;48.122;11.576;2022-12-28T03:22:28;96350.03;;;3.19
40047;BMP280;31510;48.122;11.576;2022-12-28T03:25:15;96338.03;;;3.25
40047;BMP280;31510;48.122;11.576;2022-12-28T03:28:01;96339.13;;;3.24
40047;BMP280;31510;48.122;11.576;2022-12-28T03:30:50;96332.34;;;3.19
40047;BMP280;31510;48.122;11.576;2022-12-28T03:33:38;96329.72;;;3.23
40047;BMP280;31510;48.122;11.576;2022-12-28T03:38:48;96323.69;;;3.29
40047;BMP280;31510;48.122;11.576;2022-12-28T03:41:29;96318.06;;;3.27
40047;BMP280;31510;48.122;11.576;2022-12-28T03:43:59;96309.41;;;3.27
40047;BMP280;31510;48.122;11.576;2022-12-28T03:46:38;96310.16;;;3.24
40047;BMP280;31510;48.122;11.576;2022-12-28T03:49:08;96305.63;;;3.28
40047;BMP280;31510;48.122;11.576;2022-12-28T03:51:33;96293.19;;;3.35
40047;BMP280;31510;48.122;11.576;2022-12-28T03:53:59;96289.81;;;3.38
40047;BMP280;31510;48.122;11.576;2022-12-28T03:56:26;96290.19;;;3.37
40047;BMP280;31510;48.122;11.576;2022-12-28T03:58:52;96294.34;;;3.34
40047;BMP280;31510;48.122;11.576;2022-12-28T04:01:18;96288.31;;;3.27
40047;BMP280;31510;48.122;11.576;2022-12-28T04:03:43;96297.72;;;3.24
40047;BMP280;31510;48.122;11.576;2022-12-28T04:06:13;96287.94;;;3.25
40047;BMP280;31510;48.122;11.576;2022-12-28T04:08:41;96302.59;;;3.22
40047;BMP280;31510;48.122;11.576;2022-12-28T04:11:06;96289.06;;;3.24
40047;BMP280;31510;48.122;11.576;2022-12-28T04:13:32;96289.44;;;3.33
40047;BMP280;31510;48.122;11.576;2022-12-28T04:16:04;96281.91;;;3.38
40047;BMP280;31510;48.122;11.576;2022-12-28T04:18:31;96293.59;;;3.48
40047;BMP280;31510;48.122;11.576;2022-12-28T04:20:57;96287.91;;;3.46
40047;BMP280;31510;48.122;11.576;2022-12-28T04:23:23;96287.53;;;3.44
40047;BMP280;31510;48.122;11.576;2022-12-28T04:25:56;96277.78;;;3.41
40047;BMP280;31510;48.122;11.576;2022-12-28T04:28:22;96281.53;;;3.43
40047;BMP280;31510;48.122;11.576;2022-12-28T04:30:47;96281.53;;;3.43
40047;BMP280;31510;48.122;11.576;2022-12-28T04:33:12;96278.16;;;3.43
40047;BMP280;31510;48.122;11.576;2022-12-28T04:35:38;96283.03;;;3.44
40047;BMP280;31510;48.122;11.576;2022-12-28T04:38:03;96285.28;;;3.42
40047;BMP280;31510;48.122;11.576;2022-12-28T04:40:28;96280.00;;;3.46
40047;BMP280;31510;48.122;11.576;2022-12-28T04:42:53;96282.25;;;3.54
40047;BMP280;31510;48.122;11.576;2022-12-28T04:45:19;96281.88;;;3.62
40047;BMP280;31510;48.122;11.576;2022-12-28T04:47:44;96282.63;;;3.63
40047;BMP280;31510;48.122;11.576;2022-12-28T04:50:09;96283.38;;;3.67
40047;BMP280;31510;48.122;11.576;2022-12-28T04:52:34;96276.59;;;3.73
40047;BMP280;31510;48.122;11.576;2022-12-28T04:55:00;96275.06;;;3.79
40047;BMP280;31510;48.122;11.576;2022-12-28T04:57:25;96277.69;;;3.82
40047;BMP280;31510;48.122;11.576;2022-12-28T04:59:50;96266.38;;;3.85
40047;BMP280;31510;48.122;11.576;2022-12-28T05:02:15;96270.91;;;3.85
40047;BMP280;31510;48.122;11.576;2022-12-28T05:04:41;96268.28;;;3.81
40047;BMP280;31510;48.122;11.576;2022-12-28T05:07:06;96267.88;;;3.83
40047;BMP280;31510;48.122;11.576;2022-12-28T05:09:31;96270.16;;;3.77
40047;BMP280;31510;48.122;11.576;2022-12-28T05:11:57;96267.53;;;3.70
40047;BMP280;31510;48.122;11.576;2022-12-28T05:14:22;96267.16;;;3.72
40047;BMP280;31510;48.122;11.576;2022-12-28T05:16:49;96276.59;;;3.66
40047;BMP280;31510;48.122;11.576;2022-12-28T05:19:15;96276.59;;;3.59
40047;BMP280;31510;48.122;11.576;2022-12-28T05:21:40;96269.09;;;3.51
40047;BMP280;31510;48.122;11.576;2022-12-28T05:24:06;96262.31;;;3.43
40047;BMP280;31510;48.122;11.576;2022-12-28T05:26:31;96251.41;;;3.37
40047;BMP280;31510;48.122;11.576;2022-12-28T05:28:57;96246.13;;;3.30
40047;BMP280;31510;48.122;11.576;2022-12-28T05:31:23;96240.50;;;3.28
40047;BMP280;31510;48.122;11.576;2022-12-28T05:33:49;96251.78;;;3.22
40047;BMP280;31510;48.122;11.576;2022-12-28T05:36:20;96251.03;;;3.18
40047;BMP280;31510;48.122;11.576;2022-12-28T05:38:46;96251.41;;;3.20
40047;BMP280;31510;48.122;11.576;2022-12-28T05:41:12;96245.78;;;3.21
40047;BMP280;31510;48.122;11.576;2022-12-28T05:43:38;96239.72;;;3.24
40047;BMP280;31510;48.122;11.576;2022-12-28T05:46:06;96243.13;;;3.28
40047;BMP280;31510;48.122;11.576;2022-12-28T05:48:33;96245.75;;;3.35
40047;BMP280;31510;48.122;11.576;2022-12-28T05:51:04;96252.16;;;3.41
40047;BMP280;31510;48.122;11.576;2022-12-28T05:53:31;96248.75;;;3.48
40047;BMP280;31510;48.122;11.576;2022-12-28T05:56:01;96243.50;;;3.48
40047;BMP280;31510;48.122;11.576;2022-12-28T05:58:28;96253.25;;;3.47
40047;BMP280;31510;48.122;11.576;2022-12-28T06:00:53;96252.16;;;3.45
40047;BMP280;31510;48.122;11.576;2022-12-28T06:03:18;96244.25;;;3.45
40047;BMP280;31510;48.122;11.576;2022-12-28T06:05:44;96251.41;;;3.44
40047;BMP280;31510;48.122;11.576;2022-12-28T06:08:09;96254.03;;;3.44
40047;BMP280;31510;48.122;11.576;2022-12-28T06:10:35;96244.25;;;3.45
40047;BMP280;31510;48.122;11.576;2022-12-28T06:13:00;96251.41;;;3.41
40047;BMP280;31510;48.122;11.576;2022-12-28T06:15:25;96245.72;;;3.39
40047;BMP280;31510;48.122;11.576;2022-12-28T06:17:52;96244.25;;;3.38
40047;BMP280;31510;48.122;11.576;2022-12-28T06:20:17;96241.22;;;3.39
40047;BMP280;31510;48.122;11.576;2022-12-28T06:22:42;96254.41;;;3.36
40047;BMP280;31510;48.122;11.576;2022-12-28T06:25:08;96246.88;;;3.34
40047;BMP280;31510;48.122;11.576;2022-12-28T06:27:33;96251.78;;;3.32
40047;BMP280;31510;48.122;11.576;2022-12-28T06:29:58;96263.06;;;3.33
40047;BMP280;31510;48.122;11.576;2022-12-28T06:32:24;96252.16;;;3.34
40047;BMP280;31510;48.122;11.576;2022-12-28T06:34:49;96261.19;;;3.37
40047;BMP280;31510;48.122;11.576;2022-12-28T06:37:14;96262.69;;;3.38
40047;BMP280;31510;48.122;11.576;2022-12-28T06:39:39;96263.81;;;3.37
40047;BMP280;31510;48.122;11.576;2022-12-28T06:42:05;96261.97;;;3.37
40047;BMP280;31510;48.122;11.576;2022-12-28T06:44:30;96257.06;;;3.39
40047;BMP280;31510;48.122;11.576;2022-12-28T06:46:55;96270.22;;;3.46
40047;BMP280;31510;48.122;11.576;2022-12-28T06:49:20;96255.53;;;3.49
40047;BMP280;31510;48.122;11.576;2022-12-28T06:51:46;96259.28;;;3.51
40047;BMP280;31510;48.122;11.576;2022-12-28T06:54:11;96252.88;;;3.52
40047;BMP280;31510;48.122;11.576;2022-12-28T06:56:36;96254.78;;;3.48
40047;BMP280;31510;48.122;11.576;2022-12-28T06:59:02;96255.53;;;3.49
40047;BMP280;31510;48.122;11.576;2022-12-28T07:01:37;96253.63;;;3.46
40047;BMP280;31510;48.122;11.576;2022-12-28T07:04:04;96244.97;;;3.45
40047;BMP280;31510;48.122;11.576;2022-12-28T07:06:34;96249.13;;;3.46
40047;BMP280;31510;48.122;11.576;2022-12-28T07:09:03;96251.78;;;3.50
40047;BMP280;31510;48.122;11.576;2022-12-28T07:11:29;96249.88;;;3.57
40047;BMP280;31510;48.122;11.576;2022-12-28T07:13:55;96255.13;;;3.60
40047;BMP280;31510;48.122;11.576;2022-12-28T07:16:22;96254.38;;;3.63
40047;BMP280;31510;48.122;11.576;2022-12-28T07:18:48;96254.75;;;3.65
40047;BMP280;31510;48.122;11.576;2022-12-28T07:21:16;96258.50;;;3.71
40047;BMP280;31510;48.122;11.576;2022-12-28T07:23:42;96255.84;;;3.75
40047;BMP280;31510;48.122;11.576;2022-12-28T07:26:10;96254.31;;;3.77
40047;BMP280;31510;48.122;11.576;2022-12-28T07:28:37;96253.56;;;3.80
40047;BMP280;31510;48.122;11.576;2022-12-28T07:31:06;96254.31;;;3.88
40047;BMP280;31510;48.122;11.576;2022-12-28T07:33:32;96250.16;;;3.90
40047;BMP280;31510;48.122;11.576;2022-12-28T07:35:58;96247.16;;;3.92
40047;BMP280;31510;48.122;11.576;2022-12-28T07:38:23;96255.81;;;3.96
40047;BMP280;31510;48.122;11.576;2022-12-28T07:40:48;96253.53;;;3.97
40047;BMP280;31510;48.122;11.576;2022-12-28T07:43:14;96256.53;;;3.96
40047;BMP280;31510;48.122;11.576;2022-12-28T07:45:39;96252.00;;;4.03
40047;BMP280;31510;48.122;11.576;2022-12-28T07:48:04;96257.63;;;4.09
40047;BMP280;31510;48.122;11.576;2022-12-28T07:50:30;96256.50;;;4.06
40047;BMP280;31510;48.122;11.576;2022-12-28T07:52:56;96263.31;;;4.04
40047;BMP280;31510;48.122;11.576;2022-12-28T07:55:21;96267.09;;;4.03
40047;BMP280;31510;48.122;11.576;2022-12-28T07:57:50;96266.34;;;4.02
40047;BMP280;31510;48.122;11.576;2022-12-28T08:00:15;96257.63;;;4.05
40047;BMP280;31510;48.122;11.576;2022-12-28T08:02:40;96249.34;;;4.07
40047;BMP280;31510;48.122;11.576;2022-12-28T08:05:06;96241.44;;;4.07
40047;BMP280;31510;48.122;11.576;2022-12-28T08:07:32;96244.44;;;4.09
40047;BMP280;31510;48.122;11.576;2022-12-28T08:09:57;96240.28;;;4.15
40047;BMP280;31510;48.122;11.576;2022-12-28T08:12:22;96245.16;;;4.20
40047;BMP280;31510;48.122;11.576;2022-12-28T08:14:48;96242.53;;;4.20
40047;BMP280;31510;48.122;11.576;2022-12-28T08:17:13;96241.38;;;4.21
40047;BMP280;31510;48.122;11.576;2022-12-28T08:19:38;96244.38;;;4.23
40047;BMP280;31510;48.122;11.576;2022-12-28T08:22:03;96237.22;;;4.23
40047;BMP280;31510;48.122;11.576;2022-12-28T08:24:29;96235.69;;;4.26
40047;BMP280;31510;48.122;11.576;2022-12-28T08:26:54;96247.38;;;4.28
40047;BMP280;31510;48.122;11.576;2022-12-28T08:29:20;96253.00;;;4.34
40047;BMP280;31510;48.122;11.576;2022-12-28T08:31:46;96249.59;;;4.36
40047;BMP280;31510;48.122;11.576;2022-12-28T08:34:14;96246.94;;;4.43
40047;BMP280;31510;48.122;11.576;2022-12-28T08:36:40;96243.13;;;4.48
40047;BMP280;31510;48.122;11.576;2022-12-28T08:39:05;96243.47;;;4.53
40047;BMP280;31510;48.122;11.576;2022-12-28T08:41:30;96238.94;;;4.57
40047;BMP280;31510;48.122;11.576;2022-12-28T08:43:56;96243.09;;;4.58
40047;BMP280;31510;48.122;11.576;2022-12-28T08:46:27;96245.72;;;4.58
40047;BMP280;31510;48.122;11.576;2022-12-28T08:48:54;96245.72;;;4.58
40047;BMP280;31510;48.122;11.576;2022-12-28T08:53:49;96234.72;;;4.63
40047;BMP280;31510;48.122;11.576;2022-12-28T08:56:24;96227.16;;;4.65
40047;BMP280;31510;48.122;11.576;2022-12-28T08:58:51;96229.03;;;4.68
40047;BMP280;31510;48.122;11.576;2022-12-28T09:01:18;96231.31;;;4.70
40047;BMP280;31510;48.122;11.576;2022-12-28T09:03:46;96218.81;;;4.74
40047;BMP280;31510;48.122;11.576;2022-12-28T09:06:14;96213.50;;;4.77
40047;BMP280;31510;48.122;11.576;2022-12-28T09:08:40;96216.13;;;4.80
40047;BMP280;31510;48.122;11.576;2022-12-28T09:11:09;96214.63;;;4.83
40047;BMP280;31510;48.122;11.576;2022-12-28T09:13:35;96204.03;;;4.86
40047;BMP280;31510;48.122;11.576;2022-12-28T09:16:09;96215.31;;;4.90
40047;BMP280;31510;48.122;11.576;2022-12-28T09:18:35;96215.28;;;4.94
40047;BMP280;31510;48.122;11.576;2022-12-28T09:21:19;96211.84;;;4.97
40047;BMP280;31510;48.122;11.576;2022-12-28T09:23:45;96201.25;;;5.00
40047;BMP280;31510;48.122;11.576;2022-12-28T09:26:19;96199.34;;;5.04
40047;BMP280;31510;48.122;11.576;2022-12-28T09:28:46;96209.91;;;5.08
40047;BMP280;31510;48.122;11.576;2022-12-28T09:31:11;96207.22;;;5.11
40047;BMP280;31510;48.122;11.576;2022-12-28T09:33:37;96188.69;;;5.15
40047;BMP280;31510;48.122;11.576;2022-12-28T09:36:21;96192.03;;;5.18
40047;BMP280;31510;48.122;11.576;2022-12-28T09:38:48;96185.22;;;5.21
40047;BMP280;31510;48.122;11.576;2022-12-28T09:41:40;96192.00;;;5.25
40047;BMP280;31510;48.122;11.576;2022-12-28T09:46:31;96183.22;;;5.32
40047;BMP280;31510;48.122;11.576;2022-12-28T09:48:58;96182.41;;;5.38
40047;BMP280;31510;48.122;11.576;2022-12-28T09:51:31;96179.34;;;5.43
40047;BMP280;31510;48.122;11.576;2022-12-28T09:53:58;96181.22;;;5.46
40047;BMP280;31510;48.122;11.576;2022-12-28T09:56:38;96166.03;;;5.50
40047;BMP280;31510;48.122;11.576;2022-12-28T09:59:06;96170.50;;;5.56
40047;BMP280;31510;48.122;11.576;2022-12-28T10:01:34;96162.94;;;5.58
40047;BMP280;31510;48.122;11.576;2022-12-28T10:04:01;96156.06;;;5.64
40047;BMP280;31510;48.122;11.576;2022-12-28T10:06:29;96160.91;;;5.69
40047;BMP280;31510;48.122;11.576;2022-12-28T10:08:59;96163.16;;;5.74
40047;BMP280;31510;48.122;11.576;2022-12-28T10:11:42;96157.41;;;5.79
40047;BMP280;31510;48.122;11.576;2022-12-28T10:16:46;96146.31;;;5.91
40047;BMP280;31510;48.122;11.576;2022-12-28T10:19:16;96135.28;;;5.96
40047;BMP280;31510;48.122;11.576;2022-12-28T10:21:43;96136.34;;;6.02
40047;BMP280;31510;48.122;11.576;2022-12-28T10:24:11;96134.38;;;6.09
40047;BMP280;31510;48.122;11.576;2022-12-28T10:26:37;96122.19;;;6.15
40047;BMP280;31510;48.122;11.576;2022-12-28T10:29:04;96120.56;;;6.21
40047;BMP280;31510;48.122;11.576;2022-12-28T10:31:37;96119.72;;;6.28
40047;BMP280;31510;48.122;11.576;2022-12-28T10:34:18;96107.53;;;6.34
40047;BMP280;31510;48.122;11.576;2022-12-28T10:36:48;96104.44;;;6.38
40047;BMP280;31510;48.122;11.576;2022-12-28T10:39:23;96099.44;;;6.44
40047;BMP280;31510;48.122;11.576;2022-12-28T10:41:50;96100.16;;;6.48
40047;BMP280;31510;48.122;11.576;2022-12-28T10:44:26;96095.09;;;6.57
40047;BMP280;31510;48.122;11.576;2022-12-28T10:47:35;96087.78;;;6.64
40047;BMP280;31510;48.122;11.576;2022-12-28T10:50:00;96092.63;;;6.69
40047;BMP280;31510;48.122;11.576;2022-12-28T10:52:26;96081.19;;;6.72
40047;BMP280;31510;48.122;11.576;2022-12-28T10:54:51;96084.56;;;6.76
40047;BMP280;31510;48.122;11.576;2022-12-28T10:57:27;96077.28;;;6.80
40047;BMP280;31510;48.122;11.576;2022-12-28T11:00:13;96072.66;;;6.84
40047;BMP280;31510;48.122;11.576;2022-12-28T11:02:38;96071.94;;;6.83
40047;BMP280;31510;48.122;11.576;2022-12-28T11:05:04;96073.75;;;6.86
40047;BMP280;31510;48.122;11.576;2022-12-28T11:07:35;96066.16;;;6.88
40047;BMP280;31510;48.122;11.576;2022-12-28T11:12:42;96061.88;;;6.94
40047;BMP280;31510;48.122;11.576;2022-12-28T11:15:13;96057.66;;;6.97
40047;BMP280;31510;48.122;11.576;2022-12-28T11:17:39;96052.28;;;7.00
40047;BMP280;31510;48.122;11.576;2022-12-28T11:20:28;96043.53;;;7.03
40047;BMP280;31510;48.122;11.576;2022-12-28T11:22:55;96043.88;;;7.05
40047;BMP280;31510;48.122;11.576;2022-12-28T11:25:28;96036.59;;;7.09
40047;BMP280;31510;48.122;11.576;2022-12-28T11:27:54;96039.63;;;7.11
40047;BMP280;31510;48.122;11.576;2022-12-28T11:30:20;96035.78;;;7.12
40047;BMP280;31510;48.122;11.576;2022-12-28T11:32:54;96044.09;;;7.14
40047;BMP280;31510;48.122;11.576;2022-12-28T11:35:29;96035.72;;;7.15
40047;BMP280;31510;48.122;11.576;2022-12-28T11:38:00;96042.53;;;7.16
40047;BMP280;31510;48.122;11.576;2022-12-28T11:40:46;96038.72;;;7.17
40047;BMP280;31510;48.122;11.576;2022-12-28T11:45:59;96022.41;;;7.19
40047;BMP280;31510;48.122;11.576;2022-12-28T11:48:44;96021.25;;;7.20
40047;BMP280;31510;48.122;11.576;2022-12-28T11:51:17;96024.25;;;7.22
40047;BMP280;31510;48.122;11.576;2022-12-28T11:56:11;96016.22;;;7.25
40047;BMP280;31510;48.122;11.576;2022-12-28T12:01:08;96010.84;;;7.29
40047;BMP280;31510;48.122;11.576;2022-12-28T12:12:01;95980.97;;;7.44
40047;BMP280;31510;48.122;11.576;2022-12-28T12:14:38;95981.22;;;7.50
40047;BMP280;31510;48.122;11.576;2022-12-28T12:19:53;95973.03;;;7.60
40047;BMP280;31510;48.122;11.576;2022-12-28T12:22:31;95962.00;;;7.61
40047;BMP280;31510;48.122;11.576;2022-12-28T12:25:06;95968.41;;;7.64
40047;BMP280;31510;48.122;11.576;2022-12-28T12:27:39;95959.63;;;7.67
40047;BMP280;31510;48.122;11.576;2022-12-28T12:30:15;95951.56;;;7.70
40047;BMP280;31510;48.122;11.576;2022-12-28T12:32:59;95952.28;;;7.74
40047;BMP280;31510;48.122;11.576;2022-12-28T12:35:29;95941.66;;;7.74
40047;BMP280;31510;48.122;11.576;2022-12-28T12:54:44;95907.88;;;8.06
40047;BMP280;31510;48.122;11.576;2022-12-28T12:57:24;95906.66;;;8.11
40047;BMP280;31510;48.122;11.576;2022-12-28T13:00:09;95899.38;;;8.15
40047;BMP280;31510;48.122;11.576;2022-12-28T13:02:40;95894.28;;;8.20
40047;BMP280;31510;48.122;11.576;2022-12-28T13:05:13;95884.00;;;8.22
40047;BMP280;31510;48.122;11.576;2022-12-28T13:07:40;95884.22;;;8.28
40047;BMP280;31510;48.122;11.576;2022-12-28T13:10:13;95879.06;;;8.36
40047;BMP280;31510;48.122;11.576;2022-12-28T13:12:40;95878.03;;;8.46
40047;BMP280;31510;48.122;11.576;2022-12-28T13:15:06;95882.75;;;8.55
40047;BMP280;31510;48.122;11.576;2022-12-28T13:17:32;95886.81;;;8.59
40047;BMP280;31510;48.122;11.576;2022-12-28T13:20:15;95878.75;;;8.63
40047;BMP280;31510;48.122;11.576;2022-12-28T13:22:44;95880.97;;;8.64
40047;BMP280;31510;48.122;11.576;2022-12-28T13:25:30;95877.56;;;8.64
40047;BMP280;31510;48.122;11.576;2022-12-28T13:27:57;95871.09;;;8.65
40047;BMP280;31510;48.122;11.576;2022-12-28T13:30:24;95869.94;;;8.66
40047;BMP280;31510;48.122;11.576;2022-12-28T13:32:57;95872.50;;;8.69
40047;BMP280;31510;48.122;11.576;2022-12-28T13:35:32;95875.03;;;8.73
40047;BMP280;31510;48.122;11.576;2022-12-28T13:38:17;95870.81;;;8.75
40047;BMP280;31510;48.122;11.576;2022-12-28T13:40:50;95869.97;;;8.78
40047;BMP280;31510;48.122;11.576;2022-12-28T13:43:34;95871.75;;;8.81
40047;BMP280;31510;48.122;11.576;2022-12-28T13:46:10;95870.59;;;8.82
40047;BMP280;31510;48.122;11.576;2022-12-28T13:48:39;95867.94;;;8.82
40047;BMP280;31510;48.122;11.576;2022-12-28T13:51:09;95868.28;;;8.84
40047;BMP280;31510;48.122;11.576;2022-12-28T13:53:35;95859.13;;;8.85
40047;BMP280;31510;48.122;11.576;2022-12-28T13:56:01;95849.25;;;8.85
40047;BMP280;31510;48.122;11.576;2022-12-28T13:58:37;95869.78;;;8.85
40047;BMP280;31510;48.122;11.576;2022-12-28T14:01:08;95854.97;;;8.84
40047;BMP280;31510;48.122;11.576;2022-12-28T14:03:37;95853.91;;;8.81
40047;BMP280;31510;48.122;11.576;2022-12-28T14:06:03;95855.81;;;8.81
40047;BMP280;31510;48.122;11.576;2022-12-28T14:08:33;95846.78;;;8.78
40047;BMP280;31510;48.122;11.576;2022-12-28T14:10:59;95841.47;;;8.78
40047;BMP280;31510;48.122;11.576;2022-12-28T14:13:25;95841.78;;;8.80
40047;BMP280;31510;48.122;11.576;2022-12-28T14:15:51;95840.63;;;8.81
40047;BMP280;31510;48.122;11.576;2022-12-28T14:18:18;95842.09;;;8.82
40047;BMP280;31510;48.122;11.576;2022-12-28T14:20:48;95829.53;;;8.83
40047;BMP280;31510;48.122;11.576;2022-12-28T14:23:20;95838.69;;;8.82
40047;BMP280;31510;48.122;11.576;2022-12-28T14:25:46;95841.34;;;8.82
40047;BMP280;31510;48.122;11.576;2022-12-28T14:29:01;95844.03;;;8.82
40047;BMP280;31510;48.122;11.576;2022-12-28T14:31:03;95840.19;;;8.83
40047;BMP280;31510;48.122;11.576;2022-12-28T14:33:32;95837.97;;;8.81
40047;BMP280;31510;48.122;11.576;2022-12-28T14:36:00;95842.84;;;8.83
40047;BMP280;31510;48.122;11.576;2022-12-28T14:38:31;95847.84;;;8.81
40047;BMP280;31510;48.122;11.576;2022-12-28T14:40:58;95847.84;;;8.81
40047;BMP280;31510;48.122;11.576;2022-12-28T14:45:52;95833.91;;;8.77
40047;BMP280;31510;48.122;11.576;2022-12-28T14:48:21;95837.81;;;8.73
40047;BMP280;31510;48.122;11.576;2022-12-28T14:51:03;95830.69;;;8.70
40047;BMP280;31510;48.122;11.576;2022-12-28T14:53:29;95825.47;;;8.66
40047;BMP280;31510;48.122;11.576;2022-12-28T14:55:59;95826.31;;;8.63
40047;BMP280;31510;48.122;11.576;2022-12-28T14:58:29;95824.06;;;8.62
40047;BMP280;31510;48.122;11.576;2022-12-28T15:00:59;95820.03;;;8.57
40047;BMP280;31510;48.122;11.576;2022-12-28T15:03:25;95824.72;;;8.53
40047;BMP280;31510;48.122;11.576;2022-12-28T15:05:54;95812.16;;;8.54
40047;BMP280;31510;48.122;11.576;2022-12-28T15:08:20;95823.63;;;8.51
40047;BMP280;31510;48.122;11.576;2022-12-28T15:10:55;95819.91;;;8.48
40047;BMP280;31510;48.122;11.576;2022-12-28T15:13:21;95819.59;;;8.46
40047;BMP280;31510;48.122;11.576;2022-12-28T15:16:00;95821.47;;;8.46
40047;BMP280;31510;48.122;11.576;2022-12-28T15:18:26;95817.75;;;8.43
40047;BMP280;31510;48.122;11.576;2022-12-28T15:20:52;95817.75;;;8.43
40047;BMP280;31510;48.122;11.576;2022-12-28T15:23:17;95817.44;;;8.41
40047;BMP280;31510;48.122;11.576;2022-12-28T15:25:43;95825.19;;;8.36
40047;BMP280;31510;48.122;11.576;2022-12-28T15:28:08;95824.84;;;8.34
40047;BMP280;31510;48.122;11.576;2022-12-28T15:30:33;95824.94;;;8.31
40047;BMP280;31510;48.122;11.576;2022-12-28T15:32:58;95829.91;;;8.29
40047;BMP280;31510;48.122;11.576;2022-12-28T15:35:24;95821.63;;;8.27